Time;durP1;ratioP1;P1;durP2;ratioP2;P2;SDS_P1;SDS_P2;PMS_P1;PMS_P2;Temp;Humidity;BMP_temperature;BMP_pressure;BME280_temperature;BME280_humidity;BME280_pressure;Samples;Min_cycle;Max_cycle;Signal;HPM_P1;HPM_P2
2021/06/09 00:01:49;;;;;;;13.23;11.90;;;;;;;;;;5031695;28;20194;-75
2021/06/09 00:04:52;;;;;;;13.50;11.73;;;;;;;;;;5054695;28;20227;-75
2021/06/09 00:07:57;;;;;;;14.63;11.70;;;;;;;;;;5055708;28;20199;-75
2021/06/09 00:11:01;;;;;;;13.47;12.17;;;;;;;;;;5068301;28;20558;-75
2021/06/09 00:14:06;;;;;;;12.80;10.90;;;;;;;;;;5075013;28;20202;-75
2021/06/09 00:17:10;;;;;;;13.27;11.90;;;;;;;;;;5063082;28;20222;-75
2021/06/09 00:20:19;;;;;;;14.30;12.73;;;;;;;;;;5055168;28;20677;-75
2021/06/09 00:23:27;;;;;;;15.67;12.53;;;;;;;;;;5072587;28;20557;-75
2021/06/09 00:26:32;;;;;;;13.47;11.83;;;;;;;;;;5062741;28;20566;-75
2021/06/09 00:29:46;;;;;;;12.67;11.40;;;;;;;;;;5074022;28;20198;-74
2021/06/09 00:32:50;;;;;;;13.40;11.73;;;;;;;;;;5074829;28;20198;-75
2021/06/09 00:35:57;;;;;;;12.83;11.50;;;;;;;;;;5054814;28;20227;-75
2021/06/09 00:39:03;;;;;;;12.60;11.37;;;;;;;;;;5068718;28;20202;-75
2021/06/09 00:42:07;;;;;;;13.60;12.20;;;;;;;;;;5074130;28;20206;-74
2021/06/09 00:45:12;;;;;;;13.40;11.87;;;;;;;;;;5060459;28;20700;-75
2021/06/09 00:48:17;;;;;;;16.53;13.80;;;;;;;;;;5060870;28;20199;-75
2021/06/09 00:51:21;;;;;;;13.50;12.10;;;;;;;;;;5062134;28;20190;-75
2021/06/09 00:54:25;;;;;;;16.37;11.27;;;;;;;;;;5073361;28;20187;-75
2021/06/09 00:57:29;;;;;;;12.70;11.40;;;;;;;;;;5054456;28;20226;-75
2021/06/09 01:00:34;;;;;;;14.87;12.50;;;;;;;;;;5074293;28;20186;-75
2021/06/09 01:03:38;;;;;;;13.80;12.40;;;;;;;;;;5056210;28;20195;-75
2021/06/09 01:06:42;;;;;;;14.07;11.63;;;;;;;;;;5033496;28;20214;-75
2021/06/09 01:09:46;;;;;;;14.83;12.90;;;;;;;;;;5064799;28;20198;-75
2021/06/09 01:12:51;;;;;;;13.63;11.93;;;;;;;;;;5061746;28;20187;-74
2021/06/09 01:15:56;;;;;;;16.77;12.70;;;;;;;;;;5052743;28;20223;-75
2021/06/09 01:19:01;;;;;;;13.97;12.40;;;;;;;;;;5054954;28;20211;-75
2021/06/09 01:22:05;;;;;;;13.70;12.30;;;;;;;;;;5054138;28;20199;-75
2021/06/09 01:25:10;;;;;;;14.47;12.97;;;;;;;;;;5053757;28;20705;-75
2021/06/09 01:28:14;;;;;;;16.43;13.70;;;;;;;;;;5054583;28;20179;-75
2021/06/09 01:31:18;;;;;;;14.77;12.67;;;;;;;;;;5066057;28;20267;-75
2021/06/09 01:34:22;;;;;;;14.53;12.60;;;;;;;;;;5073874;28;20546;-75
2021/06/09 01:37:27;;;;;;;13.73;12.20;;;;;;;;;;5053415;28;20234;-75
2021/06/09 01:40:31;;;;;;;14.67;12.03;;;;;;;;;;5060278;28;20202;-75
2021/06/09 01:43:35;;;;;;;14.53;13.03;;;;;;;;;;5073367;28;20198;-75
2021/06/09 01:46:41;;;;;;;13.97;12.53;;;;;;;;;;5072723;28;20211;-75
2021/06/09 01:49:46;;;;;;;14.63;13.17;;;;;;;;;;5072174;28;20194;-75
2021/06/09 01:52:51;;;;;;;14.80;12.57;;;;;;;;;;5061022;28;20190;-75
2021/06/09 01:55:59;;;;;;;19.23;13.27;;;;;;;;;;5060591;28;20217;-75
2021/06/09 01:59:14;;;;;;;14.67;13.13;;;;;;;;;;5073235;28;20198;-75
2021/06/09 02:02:19;;;;;;;14.80;13.30;;;;;;;;;;5073421;28;20198;-75
2021/06/09 02:05:24;;;;;;;14.87;13.33;;;;;;;;;;5072798;28;20214;-75
2021/06/09 02:08:28;;;;;;;15.47;13.33;;;;;;;;;;5072969;28;20187;-75
2021/06/09 02:11:33;;;;;;;14.70;12.80;;;;;;;;;;5060492;28;20211;-75
2021/06/09 02:14:37;;;;;;;14.33;12.87;;;;;;;;;;5061254;28;20195;-75
2021/06/09 02:17:47;;;;;;;15.17;13.57;;;;;;;;;;5041798;28;20219;-75
2021/06/09 02:20:57;;;;;;;15.63;13.87;;;;;;;;;;5053005;28;20203;-74
2021/06/09 02:24:03;;;;;;;15.43;13.83;;;;;;;;;;5059153;28;20206;-75
2021/06/09 02:27:08;;;;;;;16.87;15.00;;;;;;;;;;5072855;28;20581;-75
2021/06/09 02:30:13;;;;;;;16.23;14.50;;;;;;;;;;5053195;28;20194;-73
2021/06/09 02:33:23;;;;;;;16.30;14.53;;;;;;;;;;5053527;28;20260;-75
2021/06/09 02:36:28;;;;;;;16.27;14.53;;;;;;;;;;5072637;28;20230;-75
2021/06/09 02:39:32;;;;;;;15.63;13.67;;;;;;;;;;5071363;28;20562;-75
2021/06/09 02:42:36;;;;;;;15.47;13.27;;;;;;;;;;5052843;28;20645;-75
2021/06/09 02:45:46;;;;;;;16.00;14.30;;;;;;;;;;5072203;28;20238;-75
2021/06/09 02:48:59;;;;;;;16.67;14.60;;;;;;;;;;5072895;28;20198;-75
2021/06/09 02:52:11;;;;;;;16.63;14.93;;;;;;;;;;5060257;28;20199;-74
2021/06/09 02:55:31;;;;;;;18.23;15.60;;;;;;;;;;5072549;28;20202;-75
2021/06/09 02:59:09;;;;;;;16.20;14.50;;;;;;;;;;5060656;28;20210;-75
2021/06/09 03:02:25;;;;;;;16.40;14.10;;;;;;;;;;5049217;28;20190;-75
2021/06/09 03:05:35;;;;;;;18.00;14.93;;;;;;;;;;5052351;28;20239;-75
2021/06/09 03:08:45;;;;;;;24.30;15.37;;;;;;;;;;5063692;28;20195;-75
2021/06/09 03:12:13;;;;;;;16.63;14.03;;;;;;;;;;5060476;28;20195;-75
2021/06/09 03:15:43;;;;;;;16.60;13.70;;;;;;;;;;5052835;28;20207;-75
2021/06/09 03:18:49;;;;;;;16.90;13.80;;;;;;;;;;5041202;28;20195;-75
2021/06/09 03:21:58;;;;;;;16.50;13.60;;;;;;;;;;5046625;28;20191;-75
2021/06/09 03:25:02;;;;;;;15.23;13.63;;;;;;;;;;5071103;28;20565;-75
2021/06/09 03:28:23;;;;;;;18.30;13.63;;;;;;;;;;5043042;28;20199;-75
2021/06/09 03:31:34;;;;;;;15.80;13.73;;;;;;;;;;5063866;28;20198;-75
2021/06/09 03:34:47;;;;;;;16.00;14.23;;;;;;;;;;5059659;28;20558;-75
2021/06/09 03:37:54;;;;;;;16.30;14.63;;;;;;;;;;5051217;28;20215;-75
2021/06/09 03:41:04;;;;;;;16.20;14.50;;;;;;;;;;5064540;28;20198;-75
2021/06/09 03:44:10;;;;;;;17.37;14.53;;;;;;;;;;5050536;28;20189;-75
2021/06/09 03:47:16;;;;;;;20.67;15.57;;;;;;;;;;5076043;28;20214;-75
2021/06/09 03:50:22;;;;;;;18.53;15.27;;;;;;;;;;5081399;28;20206;-74
2021/06/09 03:53:27;;;;;;;16.20;14.50;;;;;;;;;;5074460;28;20194;-74
2021/06/09 03:56:33;;;;;;;14.73;13.23;;;;;;;;;;5074585;28;20234;-75
2021/06/09 03:59:38;;;;;;;17.87;15.07;;;;;;;;;;5074988;28;20191;-75
2021/06/09 04:02:44;;;;;;;18.23;15.40;;;;;;;;;;5075339;28;20190;-75
2021/06/09 04:05:51;;;;;;;17.20;15.47;;;;;;;;;;5074643;28;20234;-75
2021/06/09 04:08:56;;;;;;;16.73;14.93;;;;;;;;;;5074306;28;20199;-75
2021/06/09 04:12:03;;;;;;;19.70;15.97;;;;;;;;;;5075162;28;20206;-75
2021/06/09 04:15:12;;;;;;;17.50;14.40;;;;;;;;;;5074961;28;20703;-75
2021/06/09 04:18:16;;;;;;;16.37;14.47;;;;;;;;;;5074958;28;20195;-75
2021/06/09 04:21:21;;;;;;;18.37;15.93;;;;;;;;;;5062580;28;21954;-75
2021/06/09 04:24:25;;;;;;;18.10;16.13;;;;;;;;;;5075358;28;20792;-75
2021/06/09 04:27:34;;;;;;;20.47;17.10;;;;;;;;;;5042669;28;20215;-75
2021/06/09 04:30:39;;;;;;;19.03;16.17;;;;;;;;;;5054865;28;20199;-75
2021/06/09 04:33:48;;;;;;;21.03;17.90;;;;;;;;;;5055072;28;20255;-74
2021/06/09 04:36:52;;;;;;;20.07;17.93;;;;;;;;;;5071132;28;20594;-74
2021/06/09 04:39:56;;;;;;;21.20;18.97;;;;;;;;;;5073693;28;20206;-75
2021/06/09 04:43:00;;;;;;;15.10;13.57;;;;;;;;;;5061683;28;20261;-76
2021/06/09 04:46:04;;;;;;;13.93;12.53;;;;;;;;;;5074543;28;20677;-76
2021/06/09 04:49:08;;;;;;;15.70;14.00;;;;;;;;;;5056442;28;20194;-76
2021/06/09 04:52:14;;;;;;;16.90;14.37;;;;;;;;;;5074413;28;20202;-75
2021/06/09 04:55:20;;;;;;;16.73;14.83;;;;;;;;;;5062109;28;20210;-75
2021/06/09 04:58:25;;;;;;;15.87;13.33;;;;;;;;;;5053869;28;20179;-75
2021/06/09 05:01:29;;;;;;;16.80;15.07;;;;;;;;;;5047602;28;20187;-76
2021/06/09 05:04:33;;;;;;;17.00;14.40;;;;;;;;;;5073070;28;20199;-75
2021/06/09 05:07:38;;;;;;;18.97;13.90;;;;;;;;;;5074079;28;20214;-75
2021/06/09 05:10:42;;;;;;;16.33;13.73;;;;;;;;;;5072866;28;20202;-75
2021/06/09 05:13:49;;;;;;;15.77;14.07;;;;;;;;;;5073033;28;20206;-75
2021/06/09 05:16:55;;;;;;;17.17;14.83;;;;;;;;;;5074175;28;20222;-75
2021/06/09 05:20:00;;;;;;;21.87;19.50;;;;;;;;;;5053903;28;20191;-75
2021/06/09 05:23:07;;;;;;;19.40;15.33;;;;;;;;;;5041854;28;20203;-75
2021/06/09 05:26:14;;;;;;;15.57;14.07;;;;;;;;;;5061281;28;20716;-75
2021/06/09 05:29:18;;;;;;;18.00;15.37;;;;;;;;;;5073249;28;20542;-75
2021/06/09 05:32:23;;;;;;;17.87;15.97;;;;;;;;;;5072916;28;20202;-76
2021/06/09 05:35:28;;;;;;;27.37;16.70;;;;;;;;;;5062635;28;20222;-76
2021/06/09 05:38:33;;;;;;;18.90;16.93;;;;;;;;;;5088279;22;20238;-72
2021/06/09 05:41:38;;;;;;;17.13;15.33;;;;;;;;;;5083587;28;20197;-72
2021/06/09 05:44:44;;;;;;;21.63;16.40;;;;;;;;;;5092378;28;20178;-72
2021/06/09 05:47:49;;;;;;;18.77;16.77;;;;;;;;;;5032786;28;20188;-72
2021/06/09 05:50:57;;;;;;;17.60;15.83;;;;;;;;;;5061539;28;20543;-72
2021/06/09 05:54:04;;;;;;;18.20;15.80;;;;;;;;;;5053536;28;20187;-71
2021/06/09 05:57:10;;;;;;;17.30;15.13;;;;;;;;;;5046112;28;20601;-72
2021/06/09 06:00:17;;;;;;;19.43;15.93;;;;;;;;;;5067402;28;20198;-73
2021/06/09 06:03:22;;;;;;;17.90;16.03;;;;;;;;;;5064305;28;20191;-72
2021/06/09 06:06:26;;;;;;;18.73;15.53;;;;;;;;;;5052444;28;20590;-72
2021/06/09 06:09:31;;;;;;;22.53;15.43;;;;;;;;;;5053392;28;20550;-73
2021/06/09 06:12:36;;;;;;;19.20;15.63;;;;;;;;;;5041101;28;20190;-72
2021/06/09 06:15:41;;;;;;;23.50;15.80;;;;;;;;;;5072756;28;20190;-72
2021/06/09 06:18:48;;;;;;;17.37;14.87;;;;;;;;;;5062314;28;20198;-72
2021/06/09 06:21:52;;;;;;;15.57;13.87;;;;;;;;;;5033091;28;20215;-73
2021/06/09 06:24:57;;;;;;;15.50;13.70;;;;;;;;;;5049651;28;20199;-72
2021/06/09 06:28:01;;;;;;;16.03;14.33;;;;;;;;;;5053003;28;20180;-73
2021/06/09 06:31:11;;;;;;;18.80;14.30;;;;;;;;;;5053454;28;20203;-73
2021/06/09 06:34:19;;;;;;;13.27;11.50;;;;;;;;;;5053186;28;20195;-74
2021/06/09 06:37:24;;;;;;;15.57;11.87;;;;;;;;;;5052652;28;20222;-73
2021/06/09 06:40:31;;;;;;;18.07;12.70;;;;;;;;;;5053111;28;20187;-73
2021/06/09 06:43:36;;;;;;;14.40;11.83;;;;;;;;;;5052764;28;20203;-73
2021/06/09 06:46:40;;;;;;;13.53;12.13;;;;;;;;;;5052804;28;20230;-73
2021/06/09 06:49:45;;;;;;;13.53;11.40;;;;;;;;;;5052689;28;20202;-73
2021/06/09 06:52:50;;;;;;;13.23;11.90;;;;;;;;;;5051992;28;20188;-73
2021/06/09 06:55:58;;;;;;;16.33;12.43;;;;;;;;;;5052631;28;20227;-73
2021/06/09 06:59:02;;;;;;;12.67;11.47;;;;;;;;;;5052697;28;20207;-73
2021/06/09 07:02:07;;;;;;;15.57;11.40;;;;;;;;;;5052632;28;20542;-73
2021/06/09 07:05:11;;;;;;;18.20;11.77;;;;;;;;;;5052862;28;20656;-73
2021/06/09 07:08:15;;;;;;;13.50;11.07;;;;;;;;;;5052883;28;20175;-74
2021/06/09 07:11:20;;;;;;;14.30;11.97;;;;;;;;;;5052802;28;20191;-72
2021/06/09 07:14:28;;;;;;;14.00;11.37;;;;;;;;;;5034314;28;20188;-74
2021/06/09 07:17:39;;;;;;;14.70;11.47;;;;;;;;;;5047272;28;20567;-73
2021/06/09 07:20:44;;;;;;;57.03;12.57;;;;;;;;;;5036421;28;20654;-73
2021/06/09 07:23:49;;;;;;;14.87;11.00;;;;;;;;;;5035625;28;20208;-73
2021/06/09 07:26:56;;;;;;;15.00;10.83;;;;;;;;;;5036153;28;20228;-74
2021/06/09 07:30:02;;;;;;;13.13;11.13;;;;;;;;;;5036499;28;20188;-73
2021/06/09 07:33:07;;;;;;;10.90;9.90;;;;;;;;;;5036244;28;20208;-73
2021/06/09 07:36:12;;;;;;;11.87;9.83;;;;;;;;;;5036041;28;20213;-73
2021/06/09 07:39:27;;;;;;;11.57;10.40;;;;;;;;;;5036031;28;20217;-73
2021/06/09 07:42:32;;;;;;;11.43;9.13;;;;;;;;;;5036081;28;20192;-73
2021/06/09 07:45:37;;;;;;;9.90;8.90;;;;;;;;;;5035846;28;20197;-73
2021/06/09 07:48:46;;;;;;;10.30;9.20;;;;;;;;;;5036425;28;20179;-73
2021/06/09 07:51:51;;;;;;;13.07;9.20;;;;;;;;;;5035113;28;20182;-73
2021/06/09 07:54:56;;;;;;;10.40;9.23;;;;;;;;;;5036072;28;20180;-73
2021/06/09 07:58:02;;;;;;;9.53;8.53;;;;;;;;;;5035718;28;20176;-73
2021/06/09 08:01:08;;;;;;;9.70;8.63;;;;;;;;;;5036164;28;20198;-73
2021/06/09 08:04:14;;;;;;;10.07;8.73;;;;;;;;;;5035851;28;20179;-74
2021/06/09 08:07:19;;;;;;;10.97;8.63;;;;;;;;;;5035313;28;20599;-72
2021/06/09 08:10:24;;;;;;;9.10;8.20;;;;;;;;;;5035951;28;20201;-74
2021/06/09 08:13:29;;;;;;;9.27;8.18;;;;;;;;;;5050676;28;20197;-73
2021/06/09 08:16:34;;;;;;;9.90;7.70;;;;;;;;;;5055331;28;20214;-74
2021/06/09 08:19:38;;;;;;;10.43;7.70;;;;;;;;;;5055457;28;20622;-74
2021/06/09 08:22:45;;;;;;;10.02;9.02;;;;;;;;;;5054286;28;20181;-74
2021/06/09 08:25:49;;;;;;;10.18;8.70;;;;;;;;;;5054487;28;20548;-74
2021/06/09 08:28:56;;;;;;;10.98;9.02;;;;;;;;;;5054999;28;20200;-74
2021/06/09 08:32:00;;;;;;;14.13;8.60;;;;;;;;;;5055266;28;20171;-74
2021/06/09 08:35:06;;;;;;;10.10;9.07;;;;;;;;;;5054206;28;20180;-73
2021/06/09 08:38:10;;;;;;;10.37;8.50;;;;;;;;;;5054885;28;20204;-74
2021/06/09 08:41:18;;;;;;;9.35;8.32;;;;;;;;;;5054985;28;20177;-74
2021/06/09 08:44:24;;;;;;;11.15;7.90;;;;;;;;;;5055300;28;20179;-74
2021/06/09 08:47:29;;;;;;;10.40;8.80;;;;;;;;;;5053710;28;20226;-74
2021/06/09 08:50:35;;;;;;;10.50;9.05;;;;;;;;;;5054627;28;20527;-73
2021/06/09 08:53:43;;;;;;;10.50;8.80;;;;;;;;;;5054774;28;20186;-74
2021/06/09 08:56:50;;;;;;;8.57;7.78;;;;;;;;;;5053692;28;20208;-73
2021/06/09 08:59:54;;;;;;;20.20;7.95;;;;;;;;;;5054680;28;20179;-74
2021/06/09 09:03:02;;;;;;;10.52;8.35;;;;;;;;;;5054608;28;20627;-74
2021/06/09 09:06:07;;;;;;;10.18;8.20;;;;;;;;;;5054387;28;20214;-74
2021/06/09 09:09:12;;;;;;;10.30;7.82;;;;;;;;;;5054508;28;20177;-74
2021/06/09 09:12:16;;;;;;;9.73;7.80;;;;;;;;;;5054062;28;20186;-73
2021/06/09 09:15:20;;;;;;;11.00;7.75;;;;;;;;;;5054098;28;20181;-74
2021/06/09 09:18:41;;;;;;;8.80;7.75;;;;;;;;;;5061743;28;20188;-73
2021/06/09 09:21:46;;;;;;;8.40;7.60;;;;;;;;;;5033970;28;20205;-74
2021/06/09 09:24:51;;;;;;;9.20;8.40;;;;;;;;;;5044765;28;20181;-74
2021/06/09 09:28:05;;;;;;;10.10;7.20;;;;;;;;;;5082483;28;20221;-74
2021/06/09 09:31:16;;;;;;;7.55;6.60;;;;;;;;;;5058805;28;20193;-74
2021/06/09 09:34:30;;;;;;;7.75;6.95;;;;;;;;;;5035570;28;20196;-73
2021/06/09 09:37:34;;;;;;;8.55;6.78;;;;;;;;;;5040436;28;20225;-73
2021/06/09 09:40:39;;;;;;;7.35;6.65;;;;;;;;;;5034002;28;20185;-74
2021/06/09 09:43:53;;;;;;;9.20;6.80;;;;;;;;;;5068383;28;20200;-73
2021/06/09 09:46:58;;;;;;;10.25;6.97;;;;;;;;;;5055708;28;20224;-73
2021/06/09 09:50:02;;;;;;;29.80;8.98;;;;;;;;;;5056027;28;20192;-73
2021/06/09 09:53:22;;;;;;;12.35;7.50;;;;;;;;;;5054593;28;20188;-73
2021/06/09 09:56:32;;;;;;;8.32;7.50;;;;;;;;;;5053446;28;20220;-74
2021/06/09 09:59:36;;;;;;;7.78;7.07;;;;;;;;;;5060501;28;20192;-73
2021/06/09 10:02:44;;;;;;;13.50;6.90;;;;;;;;;;5073257;28;20543;-74
2021/06/09 10:05:48;;;;;;;18.90;7.70;;;;;;;;;;5032582;28;20221;-74
2021/06/09 10:08:55;;;;;;;11.45;7.03;;;;;;;;;;5033321;28;20228;-73
2021/06/09 10:12:04;;;;;;;7.38;6.68;;;;;;;;;;5069369;28;20192;-72
2021/06/09 10:15:47;;;;;;;8.13;6.72;;;;;;;;;;5057055;28;20184;-72
2021/06/09 10:19:06;;;;;;;8.00;6.78;;;;;;;;;;5033714;28;20177;-74
2021/06/09 10:22:12;;;;;;;11.70;6.75;;;;;;;;;;5032612;28;20177;-74
2021/06/09 10:25:16;;;;;;;6.68;6.07;;;;;;;;;;5061830;28;20203;-73
2021/06/09 10:28:20;;;;;;;7.32;6.57;;;;;;;;;;5071291;28;20207;-73
2021/06/09 10:31:27;;;;;;;6.88;6.28;;;;;;;;;;5073288;28;20518;-73
2021/06/09 10:34:34;;;;;;;7.78;7.07;;;;;;;;;;5056898;28;20180;-74
2021/06/09 10:37:39;;;;;;;10.13;7.15;;;;;;;;;;5063336;28;20223;-73
2021/06/09 10:40:44;;;;;;;8.98;7.43;;;;;;;;;;5033200;28;20181;-73
2021/06/09 10:43:53;;;;;;;7.82;7.13;;;;;;;;;;5061571;28;20528;-72
2021/06/09 10:46:59;;;;;;;8.50;6.90;;;;;;;;;;5064230;28;20228;-72
2021/06/09 10:50:09;;;;;;;7.95;7.20;;;;;;;;;;5056911;28;20196;-73
2021/06/09 10:53:16;;;;;;;7.93;7.07;;;;;;;;;;5056887;28;20193;-73
2021/06/09 10:56:22;;;;;;;10.40;6.63;;;;;;;;;;5056881;28;20216;-73
2021/06/09 10:59:29;;;;;;;8.75;7.20;;;;;;;;;;5053438;28;20196;-73
2021/06/09 11:02:35;;;;;;;7.32;6.63;;;;;;;;;;5055886;28;20188;-73
2021/06/09 11:05:39;;;;;;;9.25;7.80;;;;;;;;;;5056036;28;20193;-72
2021/06/09 11:08:43;;;;;;;8.40;7.60;;;;;;;;;;5056522;28;20547;-73
2021/06/09 11:12:13;;;;;;;7.32;6.30;;;;;;;;;;5053221;28;20184;-73
2021/06/09 11:15:20;;;;;;;7.05;6.38;;;;;;;;;;5046278;28;20181;-72
2021/06/09 11:18:34;;;;;;;8.68;6.30;;;;;;;;;;5056401;28;20196;-73
2021/06/09 11:21:38;;;;;;;7.45;6.80;;;;;;;;;;5053838;28;20207;-73
2021/06/09 11:25:21;;;;;;;7.35;6.47;;;;;;;;;;5054223;28;20185;-73
2021/06/09 11:28:31;;;;;;;10.00;6.47;;;;;;;;;;5054843;28;20201;-73
2021/06/09 11:31:36;;;;;;;6.90;6.20;;;;;;;;;;5055799;28;20567;-72
2021/06/09 11:34:58;;;;;;;10.90;6.93;;;;;;;;;;5055773;28;20188;-73
2021/06/09 11:38:12;;;;;;;14.80;6.38;;;;;;;;;;5061270;22;20671;31
2021/06/09 11:41:20;;;;;;;6.32;5.80;;;;;;;;;;5012451;28;20214;-74
2021/06/09 11:44:31;;;;;;;8.20;6.80;;;;;;;;;;5011361;28;20193;-74
2021/06/09 11:47:36;;;;;;;8.07;6.53;;;;;;;;;;5006207;28;20232;-73
2021/06/09 11:50:41;;;;;;;11.35;7.85;;;;;;;;;;5012376;28;20207;-74
2021/06/09 11:53:50;;;;;;;14.50;8.30;;;;;;;;;;5015438;28;20184;-76
2021/06/09 11:57:11;;;;;;;13.15;7.40;;;;;;;;;;5015432;28;20230;-75
2021/06/09 12:00:15;;;;;;;8.27;7.28;;;;;;;;;;5013678;28;20193;-75
2021/06/09 12:03:22;;;;;;;7.63;6.93;;;;;;;;;;5011494;28;20192;-74
2021/06/09 12:06:26;;;;;;;15.65;7.75;;;;;;;;;;5015705;28;20214;-74
2021/06/09 12:09:32;;;;;;;8.93;6.35;;;;;;;;;;5015752;28;20212;-75
2021/06/09 12:12:37;;;;;;;9.47;7.23;;;;;;;;;;5024068;28;20192;-74
2021/06/09 12:15:42;;;;;;;9.03;7.93;;;;;;;;;;5025638;28;20567;-74
2021/06/09 12:18:48;;;;;;;11.40;8.10;;;;;;;;;;5009991;28;20643;-74
2021/06/09 12:22:06;;;;;;;11.07;7.20;;;;;;;;;;5014475;28;20195;-74
2021/06/09 12:25:17;;;;;;;13.07;7.03;;;;;;;;;;5014705;28;20248;-74
2021/06/09 12:28:21;;;;;;;12.93;7.83;;;;;;;;;;5003260;28;20207;-74
2021/06/09 12:31:25;;;;;;;8.23;7.13;;;;;;;;;;5013964;28;20182;-74
2021/06/09 12:34:32;;;;;;;10.67;7.53;;;;;;;;;;5015714;28;20177;-74
2021/06/09 12:37:43;;;;;;;10.73;7.40;;;;;;;;;;5014545;28;20221;-75
2021/06/09 12:40:48;;;;;;;7.97;7.20;;;;;;;;;;5014156;28;20193;-75
2021/06/09 12:45:01;;;;;;;9.00;7.40;;;;;;;;;;5014735;28;20201;-75
2021/06/09 12:48:40;;;;;;;8.23;7.30;;;;;;;;;;5015055;28;20210;-75
2021/06/09 12:51:44;;;;;;;8.83;7.87;;;;;;;;;;5010100;28;20558;-75
2021/06/09 12:54:51;;;;;;;9.37;8.47;;;;;;;;;;5014950;28;20197;-76
2021/06/09 12:58:00;;;;;;;8.63;7.83;;;;;;;;;;4997842;28;20193;-75
2021/06/09 13:01:11;;;;;;;10.87;8.00;;;;;;;;;;4995363;28;20186;-75
2021/06/09 13:04:34;;;;;;;9.03;8.13;;;;;;;;;;4995465;28;20622;-76
2021/06/09 13:07:38;;;;;;;11.20;8.00;;;;;;;;;;4994092;28;20217;-76
2021/06/09 13:10:43;;;;;;;12.30;8.67;;;;;;;;;;4994381;28;20183;-77
2021/06/09 13:14:07;;;;;;;10.83;8.23;;;;;;;;;;4995094;28;20511;-75
2021/06/09 13:17:11;;;;;;;10.67;9.13;;;;;;;;;;4994014;28;20222;-76
2021/06/09 13:20:16;;;;;;;9.27;8.37;;;;;;;;;;4994496;28;20182;-76
2021/06/09 13:23:20;;;;;;;10.80;9.70;;;;;;;;;;4995219;28;20194;-76
2021/06/09 13:26:30;;;;;;;13.27;10.10;;;;;;;;;;4993849;28;20716;-76
2021/06/09 13:29:42;;;;;;;10.33;9.33;;;;;;;;;;4994238;28;20706;-76
2021/06/09 13:32:49;;;;;;;10.83;9.73;;;;;;;;;;5005594;28;20187;-76
2021/06/09 13:35:53;;;;;;;12.80;9.93;;;;;;;;;;4994803;28;20221;-75
2021/06/09 13:39:03;;;;;;;13.63;10.40;;;;;;;;;;4994692;28;20201;-76
2021/06/09 13:42:07;;;;;;;10.53;9.47;;;;;;;;;;4994380;28;20205;-76
2021/06/09 13:45:21;;;;;;;10.93;9.87;;;;;;;;;;4993835;28;20186;-75
2021/06/09 13:48:25;;;;;;;11.37;10.33;;;;;;;;;;5005216;28;20669;-76
2021/06/09 13:51:36;;;;;;;12.57;9.87;;;;;;;;;;4993944;28;20188;-76
2021/06/09 13:54:42;;;;;;;14.77;10.30;;;;;;;;;;4993927;28;20535;-76
2021/06/09 13:57:48;;;;;;;10.57;9.57;;;;;;;;;;4993278;28;20576;-76
2021/06/09 14:00:55;;;;;;;11.43;9.73;;;;;;;;;;4994644;28;20182;-76
2021/06/09 14:03:59;;;;;;;10.23;9.13;;;;;;;;;;4994310;28;20191;-76
2021/06/09 14:07:07;;;;;;;13.23;9.43;;;;;;;;;;5004469;28;20222;-76
2021/06/09 14:10:14;;;;;;;10.50;8.93;;;;;;;;;;4994369;28;20222;-76
2021/06/09 14:13:23;;;;;;;10.67;9.37;;;;;;;;;;4994431;28;20633;-76
2021/06/09 14:16:27;;;;;;;9.80;8.87;;;;;;;;;;4993941;28;20217;-76
2021/06/09 14:19:32;;;;;;;9.90;8.90;;;;;;;;;;4993322;28;20182;-76
2021/06/09 14:22:41;;;;;;;8.87;7.97;;;;;;;;;;4993674;28;20186;-76
2021/06/09 14:25:45;;;;;;;9.77;8.27;;;;;;;;;;4993993;28;20213;-76
2021/06/09 14:28:50;;;;;;;9.10;8.13;;;;;;;;;;4993337;28;20221;-75
2021/06/09 14:31:54;;;;;;;8.50;7.67;;;;;;;;;;4993947;28;20637;-76
2021/06/09 14:35:13;;;;;;;8.67;7.63;;;;;;;;;;4994126;28;20178;-76
2021/06/09 14:38:21;;;;;;;8.33;7.47;;;;;;;;;;4993048;28;20199;-76
2021/06/09 14:41:43;;;;;;;9.53;8.23;;;;;;;;;;4993669;28;20527;-76
2021/06/09 14:44:48;;;;;;;9.43;7.47;;;;;;;;;;5012828;28;20663;-76
2021/06/09 14:51:26;;;;;;;6.43;5.77;;;;;;;;;;5015173;28;20187;-76
2021/06/09 14:54:30;;;;;;;8.17;6.20;;;;;;;;;;5012397;28;20192;-77
2021/06/09 14:57:34;;;;;;;7.10;6.40;;;;;;;;;;5023852;28;20212;-75
2021/06/09 15:00:38;;;;;;;7.97;7.03;;;;;;;;;;5012890;28;20183;-76
2021/06/09 15:03:43;;;;;;;7.53;6.30;;;;;;;;;;5013049;28;20197;-77
2021/06/09 15:06:48;;;;;;;6.90;6.30;;;;;;;;;;5011540;28;20692;-76
2021/06/09 15:09:57;;;;;;;7.00;6.37;;;;;;;;;;5012406;28;20232;-76
2021/06/09 15:13:01;;;;;;;7.53;6.90;;;;;;;;;;5011011;28;20549;-76
2021/06/09 15:16:05;;;;;;;9.63;7.13;;;;;;;;;;5013477;28;20222;-76
2021/06/09 15:19:10;;;;;;;7.90;7.03;;;;;;;;;;5015062;28;20180;-76
2021/06/09 15:22:15;;;;;;;8.03;6.50;;;;;;;;;;5011527;28;20643;-77
2021/06/09 15:25:19;;;;;;;9.20;6.23;;;;;;;;;;5009721;28;20184;-76
2021/06/09 15:28:23;;;;;;;6.13;5.53;;;;;;;;;;5013326;28;20185;-76
2021/06/09 15:31:27;;;;;;;6.87;5.00;;;;;;;;;;5012330;28;20188;-76
2021/06/09 15:34:31;;;;;;;4.97;4.40;;;;;;;;;;5012717;28;20189;-77
2021/06/09 15:37:36;;;;;;;5.50;4.73;;;;;;;;;;5026740;28;20385;-76
2021/06/09 15:40:40;;;;;;;6.43;5.50;;;;;;;;;;5006470;28;20651;-76
2021/06/09 15:43:44;;;;;;;14.97;6.53;;;;;;;;;;5008924;28;20195;-76
2021/06/09 15:46:50;;;;;;;6.80;5.97;;;;;;;;;;5015312;28;20717;-76
2021/06/09 15:49:54;;;;;;;10.20;6.27;;;;;;;;;;5003974;28;20209;-75
2021/06/09 15:52:58;;;;;;;6.50;5.90;;;;;;;;;;5016035;28;20206;-75
2021/06/09 15:56:03;;;;;;;6.57;5.93;;;;;;;;;;5015691;28;20223;-75
2021/06/09 15:59:07;;;;;;;7.50;6.43;;;;;;;;;;5014303;28;20188;-75
2021/06/09 16:02:11;;;;;;;7.13;6.43;;;;;;;;;;5012181;28;20189;-75
2021/06/09 16:05:16;;;;;;;7.07;6.37;;;;;;;;;;5012340;28;20201;-75
2021/06/09 16:08:20;;;;;;;7.40;6.70;;;;;;;;;;5012060;28;20191;-75
2021/06/09 16:11:25;;;;;;;9.40;6.80;;;;;;;;;;5002836;28;20184;-75
2021/06/09 16:14:29;;;;;;;9.93;7.30;;;;;;;;;;5005003;28;20190;-75
2021/06/09 16:17:33;;;;;;;8.00;7.20;;;;;;;;;;5011776;28;20220;-75
2021/06/09 16:20:37;;;;;;;8.60;7.63;;;;;;;;;;4994025;28;20178;-75
2021/06/09 16:23:42;;;;;;;8.67;7.77;;;;;;;;;;4992135;28;20725;-76
2021/06/09 16:26:46;;;;;;;8.60;7.80;;;;;;;;;;5006228;28;20656;-75
2021/06/09 16:29:51;;;;;;;9.77;8.77;;;;;;;;;;4992128;28;20202;-75
2021/06/09 16:33:00;;;;;;;10.03;8.97;;;;;;;;;;5010688;28;20193;-76
2021/06/09 16:36:05;;;;;;;11.33;9.13;;;;;;;;;;5022111;28;20217;-76
2021/06/09 16:39:09;;;;;;;10.27;8.97;;;;;;;;;;5004147;28;20201;-76
2021/06/09 16:42:13;;;;;;;9.77;8.80;;;;;;;;;;5011738;28;20181;-76
2021/06/09 16:45:21;;;;;;;10.10;9.20;;;;;;;;;;5011095;28;20196;-76
2021/06/09 16:48:25;;;;;;;10.77;9.67;;;;;;;;;;5009123;28;20189;-76
2021/06/09 16:51:29;;;;;;;12.13;10.07;;;;;;;;;;5010661;28;20767;-75
2021/06/09 16:54:40;;;;;;;10.03;9.10;;;;;;;;;;5016628;28;20196;-75
2021/06/09 17:01:08;;;;;;;9.53;8.63;;;;;;;;;;5011451;28;20209;-76
2021/06/09 17:04:12;;;;;;;11.23;9.20;;;;;;;;;;5010997;28;20177;-76
2021/06/09 17:07:16;;;;;;;10.40;9.40;;;;;;;;;;5010588;28;20576;-76
2021/06/09 17:10:21;;;;;;;9.37;8.47;;;;;;;;;;5011037;28;20209;-76
2021/06/09 17:13:25;;;;;;;10.87;9.60;;;;;;;;;;5011111;28;20181;-75
2021/06/09 17:16:31;;;;;;;10.20;9.20;;;;;;;;;;5015604;28;20220;-75
2021/06/09 17:19:36;;;;;;;9.30;8.50;;;;;;;;;;5010891;28;20178;-75
2021/06/09 17:22:40;;;;;;;9.20;8.30;;;;;;;;;;5010408;28;20193;-76
2021/06/09 17:25:44;;;;;;;17.37;13.67;;;;;;;;;;5010139;28;20707;-76
2021/06/09 17:28:49;;;;;;;34.93;23.57;;;;;;;;;;5001239;28;20241;-76
2021/06/09 17:31:53;;;;;;;22.87;17.10;;;;;;;;;;5012801;28;20193;-75
2021/06/09 17:34:58;;;;;;;13.63;11.37;;;;;;;;;;4989915;28;20565;-76
2021/06/09 17:38:04;;;;;;;11.73;8.83;;;;;;;;;;5009397;28;20203;-76
2021/06/09 17:41:08;;;;;;;24.67;18.77;;;;;;;;;;4998151;28;20197;-76
2021/06/09 17:44:13;;;;;;;20.33;14.90;;;;;;;;;;5020794;28;20667;-76
2021/06/09 17:47:17;;;;;;;20.60;15.67;;;;;;;;;;5006649;28;20235;-76
2021/06/09 17:50:21;;;;;;;21.40;15.43;;;;;;;;;;5020748;28;20228;-76
2021/06/09 17:53:26;;;;;;;21.83;16.07;;;;;;;;;;5013460;28;20209;-76
2021/06/09 17:56:31;;;;;;;9.73;8.73;;;;;;;;;;5006693;28;20758;-75
2021/06/09 17:59:36;;;;;;;18.20;13.30;;;;;;;;;;5008404;28;20189;-75
2021/06/09 18:03:03;;;;;;;15.23;12.17;;;;;;;;;;5009665;28;20205;-76
2021/06/09 18:06:07;;;;;;;14.43;12.03;;;;;;;;;;5001625;28;20579;-75
2021/06/09 18:09:12;;;;;;;13.97;11.07;;;;;;;;;;5009648;28;20196;-76
2021/06/09 18:12:16;;;;;;;11.50;8.80;;;;;;;;;;5009802;28;20189;-76
2021/06/09 18:15:21;;;;;;;12.87;11.50;;;;;;;;;;5009135;28;20181;-76
2021/06/09 18:18:26;;;;;;;10.80;9.77;;;;;;;;;;5024880;28;20680;-75
2021/06/09 18:21:30;;;;;;;10.60;9.50;;;;;;;;;;4990380;28;20170;-75
2021/06/09 18:24:35;;;;;;;11.07;9.93;;;;;;;;;;5011681;28;20190;-76
2021/06/09 18:27:40;;;;;;;13.53;9.37;;;;;;;;;;5011722;28;20221;-75
2021/06/09 18:30:46;;;;;;;10.17;9.13;;;;;;;;;;5005905;28;20210;-75